Cirencester, United Kingdom
Current Conditions -  °F | °C
As of 1:58 PM on Friday 31 Oct 2014 (Local Time) from EGVA Reporting Station
Clear Clear  
Wind Chill: 69°   Ceiling: Unl
Heat Index: 69°   Visibility: 6mi
Dew Point: 56°   Wind: 18mph
Humidity: 64%   Direction: 180°S
Pressure: 29.91"   Gusts: NA
Location:  51.72°N, 1.97°W
Report Text: EGVA 311358Z AUTO 18016KT 9999 CLR 21/13 A2991 RMK AO2 PK WND 17026/1258 SLP130 P2400 T02050134
Loading
Personal Weather Stations






























Interactive Weather Map
Tropical Storm Tracking
New forecast layout! Learn more

10-Day Weather Forecast

Advertisements
Track Severe Weather on mobile